TimeCDT,TemperatureF,Dew PointF,Humidity,Sea Level PressureIn,VisibilityMPH,Wind Direction,Wind SpeedMPH,Gust SpeedMPH,PrecipitationIn,Events,Conditions,WindDirDegrees,DateUTC
12:53 AM,50.0,37.9,63,29.91,10.0,West,6.9,-,0.00,,Clear,270,2014-04-21 05:53:00
1:53 AM,48.0,37.0,66,29.92,10.0,WSW,10.4,-,N/A,,Clear,250,2014-04-21 06:53:00
2:53 AM,46.0,36.0,68,29.91,10.0,SW,9.2,-,N/A,,Clear,230,2014-04-21 07:53:00
3:53 AM,46.9,35.1,63,29.92,10.0,West,13.8,-,N/A,,Clear,260,2014-04-21 08:53:00
4:53 AM,45.0,36.0,71,29.94,10.0,WNW,16.1,-,N/A,,Clear,290,2014-04-21 09:53:00
5:36 AM,42.8,37.4,81,29.97,10.0,NNW,18.4,23.0,N/A,,Mostly Cloudy,330,2014-04-21 10:36:00
5:53 AM,39.9,35.1,83,30.00,10.0,NNW,16.1,23.0,N/A,,Mostly Cloudy,340,2014-04-21 10:53:00
6:03 AM,39.2,35.6,87,30.00,10.0,NNW,11.5,-,N/A,,Mostly Cloudy,340,2014-04-21 11:03:00
6:13 AM,37.4,35.6,93,30.00,10.0,NNW,9.2,-,N/A,,Mostly Cloudy,330,2014-04-21 11:13:00
6:53 AM,37.9,34.0,86,30.04,10.0,NNW,16.1,-,N/A,,Mostly Cloudy,330,2014-04-21 11:53:00
7:53 AM,39.0,34.0,82,30.08,10.0,NW,13.8,-,N/A,,Overcast,320,2014-04-21 12:53:00
8:53 AM,39.9,33.1,77,30.11,10.0,NNW,23.0,29.9,N/A,,Mostly Cloudy,330,2014-04-21 13:53:00
9:02 AM,39.2,33.8,81,30.09,10.0,NNW,20.7,27.6,N/A,,Mostly Cloudy,330,2014-04-21 14:02:00
9:53 AM,43.0,34.0,71,30.10,10.0,NW,26.5,33.4,N/A,,Scattered Clouds,320,2014-04-21 14:53:00
10:53 AM,45.0,30.9,58,30.12,10.0,NNW,28.8,36.8,N/A,,Scattered Clouds,340,2014-04-21 15:53:00
11:53 AM,48.0,33.1,56,30.15,10.0,NNW,21.9,28.8,N/A,,Mostly Cloudy,330,2014-04-21 16:53:00
12:53 PM,48.9,32.0,52,30.16,10.0,North,18.4,28.8,N/A,,Mostly Cloudy,350,2014-04-21 17:53:00
1:53 PM,51.1,33.1,50,30.15,10.0,NNW,15.0,23.0,N/A,,Mostly Cloudy,340,2014-04-21 18:53:00
2:53 PM,53.1,34.0,48,30.15,10.0,NNW,15.0,23.0,N/A,,Scattered Clouds,340,2014-04-21 19:53:00
3:53 PM,55.0,33.1,43,30.15,10.0,NNW,15.0,24.2,N/A,,Scattered Clouds,340,2014-04-21 20:53:00
4:53 PM,55.9,34.0,44,30.14,10.0,NNW,12.7,20.7,N/A,,Scattered Clouds,330,2014-04-21 21:53:00
5:53 PM,55.0,34.0,45,30.14,10.0,North,11.5,-,N/A,,Mostly Cloudy,360,2014-04-21 22:53:00
6:53 PM,53.1,35.1,50,30.14,10.0,North,8.1,-,N/A,,Mostly Cloudy,360,2014-04-21 23:53:00
7:53 PM,51.1,36.0,56,30.14,10.0,NE,6.9,-,N/A,,Mostly Cloudy,40,2014-04-22 00:53:00
8:53 PM,44.1,35.1,71,30.15,10.0,NE,4.6,-,N/A,,Scattered Clouds,40,2014-04-22 01:53:00
9:53 PM,39.0,35.1,86,30.15,10.0,SSW,3.5,-,N/A,,Partly Cloudy,200,2014-04-22 02:53:00
10:53 PM,37.9,34.0,86,30.16,10.0,Calm,Calm,-,N/A,,Clear,0,2014-04-22 03:53:00
11:53 PM,37.0,34.0,89,30.15,10.0,Calm,Calm,-,N/A,,Clear,0,2014-04-22 04:53:00